createdAt,value
2019-06-10T00:01:31.532Z,5.47
2019-06-10T00:06:36.029Z,5.50
2019-06-10T00:11:41.128Z,6.47
2019-06-10T00:16:45.710Z,7.08
2019-06-10T00:21:50.933Z,8.75
2019-06-10T00:26:55.472Z,6.85
2019-06-10T00:32:03.185Z,6.83
2019-06-10T00:37:07.979Z,6.03
2019-06-10T00:42:15.087Z,7.35
2019-06-10T00:47:18.035Z,10.28
2019-06-10T00:52:22.374Z,7.60
2019-06-10T00:57:26.697Z,7.72
2019-06-10T01:02:31.834Z,9.95
2019-06-10T01:07:36.365Z,10.98
2019-06-10T01:12:40.787Z,11.45
2019-06-10T01:17:45.148Z,9.33
2019-06-10T01:22:51.506Z,5.95
2019-06-10T01:27:55.588Z,7.97
2019-06-10T01:33:01.164Z,9.30
2019-06-10T01:38:05.922Z,7.67
2019-06-10T01:43:13.319Z,10.55
2019-06-10T01:48:17.608Z,8.58
2019-06-10T01:53:22.356Z,9.70
2019-06-10T01:58:26.707Z,9.90
2019-06-10T02:03:31.632Z,7.95
2019-06-10T02:08:36.064Z,9.40
2019-06-10T02:13:40.941Z,6.97
2019-06-10T02:18:59.780Z,13.53
2019-06-10T02:23:52.165Z,10.85
2019-06-10T02:28:56.538Z,7.47
2019-06-10T02:34:02.624Z,7.30
2019-06-10T02:39:08.873Z,8.33
2019-06-10T02:44:17.303Z,8.00
2019-06-10T02:49:35.086Z,8.78
2019-06-10T02:54:31.253Z,5.50
2019-06-10T02:59:35.479Z,8.95
2019-06-10T03:04:56.812Z,5.70
2019-06-10T03:10:04.402Z,6.95
2019-06-10T03:15:08.244Z,9.55
2019-06-10T03:20:12.593Z,5.67
2019-06-10T03:25:18.214Z,6.72
2019-06-10T03:30:39.414Z,6.08
2019-06-10T03:35:28.830Z,8.18
2019-06-10T03:40:33.169Z,11.90
2019-06-10T03:45:37.497Z,7.83
2019-06-10T03:50:43.125Z,8.38
2019-06-10T03:55:47.596Z,6.58
2019-06-10T04:00:52.340Z,8.75
2019-06-10T04:05:56.771Z,10.25
2019-06-10T04:11:03.013Z,8.13
2019-06-10T04:16:07.160Z,5.62
2019-06-10T04:21:12.989Z,9.80
2019-06-10T04:26:17.823Z,8.18
2019-06-10T04:31:23.791Z,7.08
2019-06-10T04:36:29.405Z,9.98
2019-06-10T04:41:33.913Z,8.40
2019-06-10T04:46:38.257Z,5.20
2019-06-10T04:51:43.445Z,8.75
2019-06-10T04:56:48.130Z,5.03
2019-06-10T05:01:53.170Z,7.33
2019-06-10T05:06:57.599Z,7.35
2019-06-10T05:12:02.846Z,8.15
2019-06-10T05:17:07.428Z,5.78
2019-06-10T05:22:12.399Z,7.65
2019-06-10T05:27:16.899Z,6.03
2019-06-10T05:32:23.243Z,7.62
2019-06-10T05:37:28.181Z,8.13
2019-06-10T05:42:35.802Z,8.38
2019-06-10T05:47:39.438Z,7.40
2019-06-10T05:52:43.770Z,6.92
2019-06-10T05:57:48.101Z,5.55
2019-06-10T06:02:52.453Z,9.35
2019-06-10T06:08:04.433Z,8.90
2019-06-10T06:13:03.108Z,9.88
2019-06-10T06:18:10.571Z,8.05
2019-06-10T06:23:13.629Z,11.05
2019-06-10T06:28:17.974Z,8.25
2019-06-10T06:33:22.312Z,9.68
2019-06-10T06:38:26.870Z,7.28
2019-06-10T06:43:36.417Z,9.20
2019-06-10T06:48:39.985Z,9.10
2019-06-10T06:53:51.440Z,8.40
2019-06-10T06:59:04.548Z,6.75
2019-06-10T07:04:08.879Z,9.15
2019-06-10T07:09:35.797Z,5.58
2019-06-10T07:14:44.781Z,6.47
2019-06-10T07:19:47.906Z,7.33
2019-06-10T07:24:52.878Z,9.58
2019-06-10T07:29:57.440Z,7.37
2019-06-10T07:35:02.928Z,7.17
2019-06-10T07:40:07.681Z,7.20
2019-06-10T07:45:13.130Z,8.10
2019-06-10T07:50:17.720Z,6.92
2019-06-10T07:55:44.346Z,9.60
2019-06-10T08:00:48.487Z,8.65
2019-06-10T08:05:53.106Z,6.90
2019-06-10T08:10:57.469Z,6.83
2019-06-10T08:16:02.857Z,8.85
2019-06-10T08:21:07.568Z,9.40
2019-06-10T08:26:12.706Z,8.15
2019-06-10T08:31:36.745Z,12.60
2019-06-10T08:36:46.046Z,7.10
2019-06-10T08:41:49.208Z,7.40
2019-06-10T08:46:53.334Z,11.48
2019-06-10T08:51:57.753Z,8.28
2019-06-10T08:57:03.690Z,9.50
2019-06-10T09:02:08.702Z,6.85
2019-06-10T09:07:13.040Z,10.48
2019-06-10T09:12:36.866Z,8.05
2019-06-10T09:17:44.737Z,9.58
2019-06-10T09:23:00.131Z,9.30
2019-06-10T09:27:54.724Z,9.95
2019-06-10T09:33:03.368Z,9.65
2019-06-10T09:38:05.357Z,8.20
2019-06-10T09:43:09.830Z,8.90
2019-06-10T09:48:14.692Z,10.88
2019-06-10T09:53:30.116Z,8.88
2019-06-10T09:58:25.819Z,11.93
2019-06-10T10:03:32.627Z,10.70
2019-06-10T10:08:36.478Z,8.18
2019-06-10T10:13:44.131Z,9.55
2019-06-10T10:18:49.432Z,8.68
2019-06-10T10:24:06.585Z,8.83
2019-06-10T10:28:59.204Z,11.08
2019-06-10T10:34:04.313Z,10.03
2019-06-10T10:39:10.006Z,10.63
2019-06-10T10:44:14.858Z,11.43
2019-06-10T10:49:19.357Z,8.98
2019-06-10T10:54:32.865Z,5.50
2019-06-10T10:59:29.975Z,9.03
2019-06-10T11:04:34.490Z,10.30
2019-06-10T11:09:38.840Z,6.22
2019-06-10T11:14:43.469Z,7.28
2019-06-10T11:19:47.793Z,10.38
2019-06-10T11:24:54.401Z,8.73
2019-06-10T11:30:17.559Z,8.73
2019-06-10T11:35:22.896Z,9.58
2019-06-10T11:40:27.241Z,9.25
2019-06-10T11:45:32.829Z,7.60
2019-06-10T11:50:37.399Z,8.78
2019-06-10T11:55:42.384Z,7.65
2019-06-10T12:00:48.657Z,6.47
2019-06-10T12:05:55.723Z,6.67
2019-06-10T12:11:02.272Z,11.48
2019-06-10T12:17:14.801Z,9.05
2019-06-10T12:21:13.036Z,7.33
2019-06-10T12:26:17.911Z,12.60
2019-06-10T12:31:23.223Z,13.88
2019-06-10T12:36:27.787Z,9.90
2019-06-10T12:41:33.195Z,8.45
2019-06-10T12:46:37.743Z,8.90
2019-06-10T12:51:42.101Z,10.40
2019-06-10T12:56:46.445Z,11.12
2019-06-10T13:01:53.107Z,8.73
2019-06-10T13:06:57.609Z,12.25
2019-06-10T13:12:02.247Z,7.28
2019-06-10T13:17:06.614Z,7.00
2019-06-10T13:22:12.518Z,6.58
2019-06-10T13:27:17.083Z,4.65
2019-06-10T13:32:21.451Z,10.15
2019-06-10T13:37:25.795Z,9.08
2019-06-10T13:42:33.819Z,7.08
2019-06-10T13:47:36.248Z,5.70
2019-06-10T13:52:42.587Z,9.38
2019-06-10T13:58:08.328Z,9.98
2019-06-10T14:03:15.988Z,9.58
2019-06-10T14:08:18.480Z,8.68
2019-06-10T14:13:43.298Z,7.22
2019-06-10T14:18:48.561Z,5.62
2019-06-10T14:24:15.810Z,8.78
2019-06-10T14:29:18.307Z,8.73
2019-06-10T14:34:22.678Z,5.58
2019-06-10T14:39:27.152Z,8.25
2019-06-10T14:44:32.599Z,14.05
2019-06-10T14:49:37.037Z,12.98
2019-06-10T14:54:42.838Z,16.87
2019-06-10T14:59:47.334Z,22.60
2019-06-10T15:04:53.211Z,19.73
2019-06-10T15:09:57.888Z,15.38
2019-06-10T15:15:02.240Z,18.95
2019-06-10T15:20:09.512Z,20.08
2019-06-10T15:25:17.073Z,20.10
2019-06-10T15:30:26.536Z,19.45
2019-06-10T15:35:26.871Z,19.92
2019-06-10T15:40:32.469Z,20.55
2019-06-10T15:45:37.008Z,23.70
2019-06-10T15:50:42.954Z,19.37
2019-06-10T15:56:10.232Z,21.68
2019-06-10T16:00:53.731Z,23.60
2019-06-10T16:05:58.143Z,22.73
2019-06-10T16:11:03.116Z,20.20
2019-06-10T16:16:07.756Z,22.60
2019-06-10T16:21:13.279Z,20.02
2019-06-10T16:26:18.197Z,22.85
2019-06-10T16:31:25.550Z,22.82
2019-06-10T16:36:28.638Z,25.77
2019-06-10T16:41:32.992Z,25.97
2019-06-10T16:46:37.381Z,23.45
2019-06-10T16:51:42.885Z,21.05
2019-06-10T16:56:47.469Z,17.05
2019-06-10T17:01:53.149Z,19.98
2019-06-10T17:06:57.680Z,25.02
2019-06-10T17:12:02.363Z,22.10
2019-06-10T17:17:06.910Z,23.80
2019-06-10T17:22:12.669Z,20.70
2019-06-10T17:27:17.360Z,18.60
2019-06-10T17:32:23.591Z,20.62
2019-06-10T17:37:28.649Z,19.23
2019-06-10T17:42:38.006Z,17.35
2019-06-10T17:47:39.195Z,18.85
2019-06-10T17:53:02.872Z,20.97
2019-06-10T17:58:07.262Z,18.32
2019-06-10T18:03:13.175Z,21.33
2019-06-10T18:08:17.707Z,20.57
2019-06-10T18:13:22.704Z,23.05
2019-06-10T18:18:28.387Z,23.22
2019-06-10T18:23:33.198Z,22.80
2019-06-10T18:28:59.837Z,18.42
2019-06-10T18:33:43.775Z,13.22
2019-06-10T18:38:48.185Z,11.35
2019-06-10T18:43:52.544Z,8.98
2019-06-10T18:48:56.895Z,6.47
2019-06-10T18:54:01.369Z,6.37
2019-06-10T18:59:16.513Z,4.67
2019-06-10T19:04:13.059Z,4.20
2019-06-10T19:09:17.596Z,5.22
2019-06-10T19:14:22.041Z,4.50
2019-06-10T19:19:26.410Z,4.35
2019-06-10T19:24:34.285Z,6.03
2019-06-10T19:29:44.193Z,7.67
2019-06-10T19:34:48.222Z,7.60
2019-06-10T19:39:53.979Z,9.53
2019-06-10T19:44:56.759Z,7.62
2019-06-10T19:50:03.007Z,7.50
2019-06-10T19:55:13.092Z,9.80
2019-06-10T20:00:17.556Z,7.12
2019-06-10T20:05:22.456Z,7.35
2019-06-10T20:10:26.776Z,8.33
2019-06-10T20:15:32.830Z,8.48
2019-06-10T20:20:38.304Z,7.37
2019-06-10T20:25:44.364Z,7.12
2019-06-10T20:30:49.122Z,8.45
2019-06-10T20:35:53.722Z,8.20
2019-06-10T20:40:58.107Z,8.83
2019-06-10T20:46:05.769Z,9.23
2019-06-10T20:51:08.761Z,9.35
2019-06-10T20:56:13.125Z,9.63
2019-06-10T21:01:17.521Z,9.15
2019-06-10T21:06:24.667Z,9.18
2019-06-10T21:11:29.077Z,9.80
2019-06-10T21:16:53.459Z,10.88
2019-06-10T21:21:58.023Z,12.75
2019-06-10T21:27:02.386Z,14.23
2019-06-10T21:32:06.876Z,13.68
2019-06-10T21:37:12.224Z,12.98
2019-06-10T21:42:16.667Z,12.47
2019-06-10T21:47:23.359Z,11.28
2019-06-10T21:52:27.107Z,10.70
2019-06-10T21:57:33.245Z,11.83
2019-06-10T22:02:37.716Z,10.78
2019-06-10T22:07:42.628Z,11.05
2019-06-10T22:12:48.184Z,12.45
2019-06-10T22:17:53.340Z,13.10
2019-06-10T22:22:58.639Z,12.10
2019-06-10T22:28:02.972Z,13.78
2019-06-10T22:33:07.318Z,13.45
2019-06-10T22:38:13.031Z,12.80
2019-06-10T22:43:17.717Z,12.88
2019-06-10T22:48:22.507Z,14.53
2019-06-10T22:53:27.035Z,13.40
2019-06-10T22:58:31.390Z,13.75
2019-06-10T23:03:56.263Z,14.00
2019-06-10T23:09:02.724Z,13.70
2019-06-10T23:14:07.101Z,13.90
2019-06-10T23:19:13.006Z,16.00
2019-06-10T23:24:17.572Z,14.63
2019-06-10T23:29:22.782Z,18.12
2019-06-10T23:34:27.260Z,15.53
2019-06-10T23:39:33.528Z,15.50
2019-06-10T23:44:37.682Z,16.97
2019-06-10T23:49:42.051Z,17.00
2019-06-10T23:54:46.554Z,19.12
2019-06-10T23:59:52.442Z,17.50
